Time;durP1;ratioP1;P1;durP2;ratioP2;P2;SDS_P1;SDS_P2;PMS_P1;PMS_P2;Temp;Humidity;BMP_temperature;BMP_pressure;BME280_temperature;BME280_humidity;BME280_pressure;Samples;Min_cycle;Max_cycle;Signal;HPM_P1;HPM_P2
2023/08/19 00:01:49;;;;;;;0.50;0.30;;;;;;;23.33;58.20;95322.59;5111482;28;20450;-56
2023/08/19 00:04:17;;;;;;;0.80;0.47;;;;;;;23.65;57.48;95328.78;5111435;28;20428;-56
2023/08/19 00:06:45;;;;;;;0.70;0.70;;;;;;;23.55;57.69;95325.84;5115900;28;20424;-56
2023/08/19 00:09:14;;;;;;;0.73;0.50;;;;;;;23.35;57.93;95330.38;5115725;28;20518;-56
2023/08/19 00:11:42;;;;;;;0.70;0.70;;;;;;;23.32;58.08;95325.66;5115459;28;20479;-56
2023/08/19 00:14:12;;;;;;;0.50;0.30;;;;;;;23.34;58.14;95321.47;5115447;28;20489;-56
2023/08/19 00:16:40;;;;;;;0.60;0.50;;;;;;;23.32;58.13;95326.44;5115511;28;20488;-56
2023/08/19 00:19:09;;;;;;;0.50;0.30;;;;;;;23.23;58.20;95316.91;5111101;28;20516;-56
2023/08/19 00:21:40;;;;;;;0.50;0.50;;;;;;;23.31;58.25;95314.03;5106236;28;21028;-56
2023/08/19 00:24:08;;;;;;;0.97;0.90;;;;;;;23.06;58.13;95292.94;5115004;28;20881;-56
2023/08/19 00:26:37;;;;;;;2.10;0.77;;;;;;;23.27;58.44;95328.63;5115683;28;20443;-56
2023/08/19 00:29:05;;;;;;;0.40;0.30;;;;;;;23.14;58.01;95297.38;5114820;28;20565;-56
2023/08/19 00:31:39;;;;;;;0.60;0.60;;;;;;;23.37;57.68;95311.88;5114935;27;20479;-56
2023/08/19 00:34:08;;;;;;;0.60;0.43;;;;;;;23.66;57.12;95311.41;5115118;28;20435;-56
2023/08/19 00:36:37;;;;;;;0.50;0.50;;;;;;;23.75;57.07;95313.94;5114839;28;20447;-56
2023/08/19 00:39:05;;;;;;;1.47;0.57;;;;;;;23.88;56.54;95312.69;5115011;28;20816;-56
2023/08/19 00:41:34;;;;;;;4.73;0.50;;;;;;;23.69;57.22;95312.63;5115232;28;20463;-56
2023/08/19 00:44:03;;;;;;;0.60;0.43;;;;;;;23.69;57.26;95304.50;5115175;28;20510;-56
2023/08/19 00:46:32;;;;;;;1.30;1.00;;;;;;;23.57;57.24;95313.53;5114605;28;20556;-56
2023/08/19 00:49:02;;;;;;;0.90;0.80;;;;;;;23.67;57.06;95310.28;5114293;28;20463;-56
2023/08/19 00:51:31;;;;;;;0.60;0.60;;;;;;;23.62;57.37;95302.44;5114235;28;20522;-56
2023/08/19 00:53:59;;;;;;;0.80;0.60;;;;;;;23.57;57.75;95310.81;5106041;28;20439;-56
2023/08/19 00:56:28;;;;;;;0.60;0.53;;;;;;;23.56;57.94;95311.94;5110461;28;20441;-56
2023/08/19 00:58:57;;;;;;;0.60;0.40;;;;;;;23.67;57.86;95310.28;5105322;28;20440;-56
2023/08/19 01:01:25;;;;;;;0.50;0.30;;;;;;;23.98;57.23;95314.84;5114228;28;20464;-56
2023/08/19 01:03:54;;;;;;;1.70;0.40;;;;;;;23.84;57.09;95306.38;5114265;28;20796;-56
2023/08/19 01:06:30;;;;;;;1.97;1.37;;;;;;;24.06;56.56;95310.38;5114316;28;20436;-56
2023/08/19 01:09:10;;;;;;;0.60;0.53;;;;;;;23.93;57.12;95315.88;5114170;28;20443;-56
2023/08/19 01:12:00;;;;;;;0.67;0.60;;;;;;;23.80;57.50;95319.88;5114295;28;20494;-56
2023/08/19 01:14:44;;;;;;;0.63;0.53;;;;;;;23.52;58.34;95318.41;5114112;28;20493;-56
2023/08/19 01:17:17;;;;;;;0.67;0.67;;;;;;;23.37;58.72;95317.31;5111721;28;20953;-56
2023/08/19 01:19:48;;;;;;;0.50;0.50;;;;;;;23.48;58.72;95314.84;5103833;28;20531;-56
2023/08/19 01:22:26;;;;;;;0.50;0.40;;;;;;;23.39;59.29;95323.13;5114434;28;20819;-56
2023/08/19 01:24:56;;;;;;;0.97;0.60;;;;;;;23.25;59.90;95323.53;5114510;28;20933;-56
2023/08/19 01:27:26;;;;;;;0.50;0.40;;;;;;;23.24;60.40;95315.78;5114138;28;20921;-56
2023/08/19 01:29:55;;;;;;;0.83;0.43;;;;;;;23.25;60.22;95317.38;5113643;28;20442;-55
2023/08/19 01:32:25;;;;;;;0.50;0.40;;;;;;;22.96;61.13;95313.16;5114125;28;20479;-56
2023/08/19 01:34:54;;;;;;;0.90;0.90;;;;;;;23.01;61.51;95312.09;5112475;28;20471;-55
2023/08/19 01:37:28;;;;;;;2.00;0.80;;;;;;;23.03;61.13;95315.25;5102661;28;20977;-55
2023/08/19 01:40:02;;;;;;;0.60;0.60;;;;;;;22.86;61.64;95307.47;5114017;28;20476;-56
2023/08/19 01:42:32;;;;;;;1.70;0.77;;;;;;;22.92;61.85;95312.25;5113656;27;20502;-56
2023/08/19 01:45:02;;;;;;;0.50;0.30;;;;;;;22.81;62.08;95313.13;5113717;28;20432;-56
2023/08/19 01:47:30;;;;;;;0.70;0.60;;;;;;;22.83;62.57;95316.28;5114085;28;20485;-56
2023/08/19 01:49:59;;;;;;;0.53;0.37;;;;;;;22.84;62.10;95324.03;5113377;28;20477;-55
2023/08/19 01:52:27;;;;;;;0.57;0.57;;;;;;;22.89;62.08;95306.78;5113905;28;20479;-56
2023/08/19 01:54:56;;;;;;;8.63;0.50;;;;;;;22.73;62.76;95312.94;5112856;28;20432;-56
2023/08/19 01:57:27;;;;;;;0.70;0.63;;;;;;;22.54;63.34;95310.06;5113273;28;20452;-56
2023/08/19 01:59:56;;;;;;;3.53;1.50;;;;;;;22.49;63.53;95315.72;5112962;28;20443;-55
2023/08/19 02:02:25;;;;;;;1.27;0.60;;;;;;;22.53;63.63;95310.44;5113656;27;20933;-55
2023/08/19 02:04:53;;;;;;;1.20;0.67;;;;;;;22.69;63.39;95320.16;5113194;28;20444;-57
2023/08/19 02:07:21;;;;;;;0.50;0.40;;;;;;;22.80;62.98;95319.66;5099960;28;20432;-55
2023/08/19 02:09:50;;;;;;;1.03;0.87;;;;;;;22.57;63.55;95311.28;5112853;28;20546;-55
2023/08/19 02:12:18;;;;;;;0.60;0.57;;;;;;;22.53;63.92;95310.44;5112633;28;20518;-55
2023/08/19 02:14:48;;;;;;;0.50;0.30;;;;;;;22.41;64.57;95313.97;5103949;28;20503;-55
2023/08/19 02:17:16;;;;;;;3.03;1.07;;;;;;;22.34;65.07;95307.59;5108763;28;20442;-56
2023/08/19 02:19:45;;;;;;;0.67;0.40;;;;;;;22.69;64.05;95301.25;5112513;27;20879;-56
2023/08/19 02:22:13;;;;;;;0.50;0.30;;;;;;;22.63;64.50;95321.56;5112790;28;20436;-56
2023/08/19 02:24:41;;;;;;;0.77;0.63;;;;;;;23.02;63.55;95313.69;5112650;28;20471;-56
2023/08/19 02:27:09;;;;;;;0.60;0.40;;;;;;;22.59;64.11;95312.53;5112177;28;20428;-56
2023/08/19 02:29:38;;;;;;;0.63;0.60;;;;;;;22.69;64.12;95311.28;5112572;28;20432;-56
2023/08/19 02:32:07;;;;;;;0.50;0.40;;;;;;;22.44;64.73;95318.66;5112511;28;20558;-56
2023/08/19 02:34:36;;;;;;;0.60;0.40;;;;;;;22.31;65.54;95314.47;5112749;28;20519;-56
2023/08/19 02:37:04;;;;;;;1.13;0.83;;;;;;;22.25;66.00;95307.72;5113054;28;20522;-56
2023/08/19 02:39:32;;;;;;;0.80;0.80;;;;;;;22.16;66.34;95293.59;5112621;28;20464;-56
2023/08/19 02:42:01;;;;;;;0.60;0.50;;;;;;;22.02;66.57;95285.06;5112158;28;20993;-56
2023/08/19 02:44:29;;;;;;;0.63;0.43;;;;;;;22.33;66.35;95319.50;5112438;28;20504;-56
2023/08/19 02:46:57;;;;;;;1.00;0.47;;;;;;;22.17;66.79;95329.47;5112594;28;20568;-56
2023/08/19 02:49:27;;;;;;;0.60;0.50;;;;;;;22.10;67.20;95289.56;5112384;28;20880;-56
2023/08/19 02:51:56;;;;;;;0.50;0.40;;;;;;;21.97;67.34;95315.00;5085509;28;20475;-56
2023/08/19 02:54:24;;;;;;;0.97;0.93;;;;;;;21.92;67.57;95315.25;5112673;28;20451;-56
2023/08/19 02:56:52;;;;;;;0.80;0.80;;;;;;;21.41;68.87;95266.28;5112456;28;20435;-56
2023/08/19 02:59:21;;;;;;;0.50;0.40;;;;;;;21.60;70.10;95310.78;5111767;28;20445;-55
2023/08/19 03:01:49;;;;;;;1.33;0.60;;;;;;;21.61;70.20;95312.31;5112129;28;20439;-56
2023/08/19 03:04:17;;;;;;;0.97;0.87;;;;;;;21.33;70.60;95274.47;5112308;28;20530;-55
2023/08/19 03:06:47;;;;;;;1.33;0.40;;;;;;;21.61;70.44;95310.41;5112057;28;20427;-56
2023/08/19 03:09:15;;;;;;;1.33;0.60;;;;;;;21.58;70.46;95299.53;5112241;28;20457;-56
2023/08/19 03:11:44;;;;;;;0.70;0.40;;;;;;;21.58;70.46;95316.47;5112009;28;20528;-56
2023/08/19 03:14:12;;;;;;;0.93;0.80;;;;;;;21.61;71.11;95310.41;5111998;28;20468;-56
2023/08/19 03:16:41;;;;;;;1.47;1.37;;;;;;;21.54;70.85;95310.19;5112493;28;20874;-56
2023/08/19 03:19:10;;;;;;;0.70;0.60;;;;;;;21.61;70.70;95315.03;5111571;28;20588;-56
2023/08/19 03:21:38;;;;;;;0.53;0.50;;;;;;;21.58;70.74;95316.47;5111483;28;20432;-56
2023/08/19 03:24:08;;;;;;;1.00;0.90;;;;;;;21.59;71.21;95314.56;5111239;28;20444;-56
2023/08/19 03:26:37;;;;;;;0.60;0.60;;;;;;;21.75;70.80;95315.47;5111777;28;20534;-56
2023/08/19 03:29:05;;;;;;;0.77;0.70;;;;;;;21.67;70.25;95322.56;5111685;28;20443;-56
2023/08/19 03:31:33;;;;;;;0.60;0.40;;;;;;;21.88;69.21;95322.47;5112004;28;20490;-55
2023/08/19 03:34:02;;;;;;;0.60;0.40;;;;;;;21.97;68.74;95323.09;5111360;28;21022;-56
2023/08/19 03:36:30;;;;;;;0.90;0.70;;;;;;;22.10;67.77;95325.44;5110980;28;20500;-56
2023/08/19 03:38:58;;;;;;;0.67;0.50;;;;;;;22.18;66.94;95317.53;5111700;28;20455;-56
2023/08/19 03:41:28;;;;;;;1.53;0.90;;;;;;;21.86;67.82;95316.59;5111982;28;20432;-56
2023/08/19 03:43:56;;;;;;;1.00;1.00;;;;;;;21.73;68.31;95325.81;5111425;28;20868;-56
2023/08/19 03:46:24;;;;;;;1.70;1.17;;;;;;;21.53;69.77;95322.09;5111451;28;20874;-56
2023/08/19 03:48:53;;;;;;;0.50;0.40;;;;;;;21.54;69.77;95310.19;5111651;28;20479;-56
2023/08/19 03:51:21;;;;;;;0.60;0.43;;;;;;;21.61;69.44;95318.50;5111523;28;20450;-56
2023/08/19 03:53:49;;;;;;;16.77;0.70;;;;;;;21.68;68.36;95310.63;5111486;28;20806;-56
2023/08/19 03:56:18;;;;;;;0.70;0.70;;;;;;;21.82;68.19;95321.06;5111525;28;20485;-56
2023/08/19 03:58:48;;;;;;;0.63;0.63;;;;;;;21.95;67.27;95320.75;5111959;28;20766;-56
2023/08/19 04:01:16;;;;;;;6.03;0.60;;;;;;;22.19;65.82;95309.09;5111745;28;20886;-57
2023/08/19 04:03:45;;;;;;;0.60;0.50;;;;;;;22.33;65.12;95297.91;5111395;28;20504;-57
2023/08/19 04:06:13;;;;;;;0.70;0.60;;;;;;;22.30;65.16;95293.97;5110897;28;20438;-57
2023/08/19 04:08:41;;;;;;;0.40;0.30;;;;;;;22.83;63.76;95300.06;5111494;28;20443;-56
2023/08/19 04:11:10;;;;;;;0.40;0.30;;;;;;;22.82;62.69;95263.38;5111295;28;20451;-56
2023/08/19 04:13:38;;;;;;;0.40;0.27;;;;;;;23.12;61.77;95303.13;5111611;28;20532;-56
2023/08/19 04:16:08;;;;;;;0.57;0.30;;;;;;;23.13;61.48;95298.50;5110973;28;20463;-57
2023/08/19 04:18:37;;;;;;;0.50;0.37;;;;;;;22.90;61.75;95298.31;5111601;28;20432;-56
2023/08/19 04:21:06;;;;;;;0.93;0.50;;;;;;;22.66;62.50;95293.84;5111605;28;20447;-54
2023/08/19 04:23:35;;;;;;;0.40;0.30;;;;;;;22.89;62.05;95309.50;5111088;28;20439;-57
2023/08/19 04:26:04;;;;;;;0.40;0.30;;;;;;;23.26;61.21;95313.50;5111507;28;20435;-57
2023/08/19 04:28:32;;;;;;;0.50;0.30;;;;;;;23.36;60.94;95313.00;5111225;28;20474;-57
2023/08/19 04:31:04;;;;;;;0.50;0.40;;;;;;;22.81;62.08;95299.63;5111598;28;20522;-56
2023/08/19 04:33:34;;;;;;;2.40;0.80;;;;;;;22.23;61.45;95244.41;5110844;28;20475;-56
2023/08/19 04:36:03;;;;;;;1.67;0.40;;;;;;;22.49;61.66;95291.41;5110968;28;20489;-56
2023/08/19 04:38:32;;;;;;;0.50;0.40;;;;;;;22.90;61.17;95316.44;5110997;28;20435;-56
2023/08/19 04:41:01;;;;;;;0.70;0.67;;;;;;;22.45;61.15;95274.34;5111163;28;20998;-56
2023/08/19 04:43:30;;;;;;;0.70;0.70;;;;;;;22.81;61.36;95322.03;5110694;28;20436;-57
2023/08/19 04:45:58;;;;;;;0.83;0.83;;;;;;;23.07;61.22;95337.75;5111328;28;20846;-57
2023/08/19 04:48:26;;;;;;;0.50;0.40;;;;;;;22.88;61.18;95291.69;5110747;28;20459;-57
2023/08/19 04:50:56;;;;;;;0.60;0.53;;;;;;;23.22;61.51;95316.16;5099332;28;20432;-55
2023/08/19 04:53:25;;;;;;;0.50;0.40;;;;;;;23.18;61.78;95339.59;5113763;28;20478;-55
2023/08/19 04:55:59;;;;;;;0.50;0.40;;;;;;;23.26;61.20;95340.56;5114207;28;20514;-56
2023/08/19 04:58:27;;;;;;;0.40;0.30;;;;;;;23.38;60.40;95353.25;5089485;28;20809;-58
2023/08/19 05:00:56;;;;;;;0.50;0.50;;;;;;;23.53;60.61;95355.16;5114580;28;20519;-57
2023/08/19 05:03:24;;;;;;;0.77;0.40;;;;;;;23.40;60.08;95351.78;5114427;28;20452;-58
2023/08/19 05:05:53;;;;;;;0.50;0.50;;;;;;;23.71;59.40;95365.25;5113575;28;20523;-51
2023/08/19 05:08:22;;;;;;;0.63;0.60;;;;;;;23.78;59.45;95362.72;5114975;28;20440;-55
2023/08/19 05:10:51;;;;;;;0.60;0.40;;;;;;;23.90;59.61;95368.03;5113932;28;20997;-55
2023/08/19 05:13:20;;;;;;;1.30;0.60;;;;;;;24.00;59.22;95370.22;5114115;28;20497;-55
2023/08/19 05:15:48;;;;;;;0.63;0.40;;;;;;;23.90;59.11;95369.97;5113822;28;20435;-55
2023/08/19 05:18:16;;;;;;;0.73;0.73;;;;;;;23.74;58.72;95321.25;5113763;28;20468;-55
2023/08/19 05:20:45;;;;;;;0.60;0.40;;;;;;;23.77;59.18;95344.91;5113738;28;20431;-55
2023/08/19 05:23:13;;;;;;;6.40;0.90;;;;;;;23.90;58.47;95375.38;5114091;28;20440;-55
2023/08/19 05:25:43;;;;;;;3.83;0.70;;;;;;;24.03;58.59;95380.31;5113842;28;20435;-55
2023/08/19 05:28:12;;;;;;;1.43;0.83;;;;;;;23.98;58.43;95372.47;5114254;28;20440;-55
2023/08/19 05:30:40;;;;;;;1.77;0.77;;;;;;;23.93;58.02;95340.25;5087031;28;20571;-55
2023/08/19 05:33:09;;;;;;;1.67;1.57;;;;;;;24.27;58.44;95375.81;5113686;28;20829;-55
2023/08/19 05:35:37;;;;;;;1.87;1.60;;;;;;;24.10;57.35;95363.47;5113965;28;20432;-55
2023/08/19 05:38:05;;;;;;;1.53;1.43;;;;;;;24.15;57.32;95362.41;5113396;28;20443;-55
2023/08/19 05:40:34;;;;;;;4.43;0.50;;;;;;;24.19;57.35;95365.97;5113798;28;20929;-55
2023/08/19 05:43:04;;;;;;;2.73;0.57;;;;;;;24.36;57.41;95360.16;5113764;28;20440;-54
2023/08/19 05:45:33;;;;;;;0.50;0.43;;;;;;;24.75;56.65;95361.72;5114348;28;20436;-55
2023/08/19 05:48:03;;;;;;;1.63;0.80;;;;;;;24.74;56.12;95359.38;5113810;28;20440;-55
2023/08/19 05:50:32;;;;;;;1.07;0.53;;;;;;;24.76;55.11;95362.53;5113940;28;20505;-55
2023/08/19 05:53:00;;;;;;;0.80;0.60;;;;;;;24.93;54.84;95360.19;5112853;28;20463;-55
2023/08/19 05:55:28;;;;;;;0.90;0.63;;;;;;;25.03;53.80;95356.09;5113762;28;20469;-55
2023/08/19 05:57:57;;;;;;;0.50;0.50;;;;;;;25.10;53.38;95357.00;5112914;28;20436;-55
2023/08/19 06:00:26;;;;;;;1.07;0.97;;;;;;;23.07;53.06;95027.63;5113324;28;20444;-56
2023/08/19 06:02:55;;;;;;;1.30;1.20;;;;;;;25.86;53.53;95372.25;5112958;28;20970;-55
2023/08/19 06:05:24;;;;;;;0.60;0.40;;;;;;;26.24;51.89;95344.13;5112990;28;20472;-56
2023/08/19 06:07:53;;;;;;;0.87;0.60;;;;;;;26.49;51.92;95358.81;5112772;28;20508;-56
2023/08/19 06:10:21;;;;;;;0.70;0.70;;;;;;;26.58;50.49;95342.22;5113205;28;20860;-56
2023/08/19 06:12:49;;;;;;;0.50;0.30;;;;;;;27.08;50.13;95344.38;5112962;28;20964;-56
2023/08/19 06:15:21;;;;;;;0.77;0.40;;;;;;;27.41;49.44;95350.91;5112968;28;20503;-56
2023/08/19 06:17:51;;;;;;;0.70;0.70;;;;;;;27.39;49.54;95337.69;5112804;28;20805;-55
2023/08/19 06:20:20;;;;;;;0.40;0.30;;;;;;;27.56;50.42;95350.69;5112350;28;20451;-54
2023/08/19 06:22:48;;;;;;;0.70;0.40;;;;;;;27.64;49.29;95348.78;5112854;28;20427;-56
2023/08/19 06:25:17;;;;;;;0.50;0.50;;;;;;;26.99;50.28;95345.84;5112476;28;20521;-55
2023/08/19 06:27:45;;;;;;;0.53;0.37;;;;;;;27.33;49.82;95332.94;5112849;28;20959;-55
2023/08/19 06:30:14;;;;;;;0.40;0.30;;;;;;;27.70;49.95;95330.94;5112483;28;20522;-54
2023/08/19 06:32:43;;;;;;;0.73;0.63;;;;;;;28.05;50.05;95335.88;5112676;28;20439;-56
2023/08/19 06:35:15;;;;;;;0.60;0.50;;;;;;;28.15;47.79;95340.63;5112387;28;20446;-56
2023/08/19 06:37:51;;;;;;;0.50;0.40;;;;;;;28.49;48.29;95333.00;5112598;28;20524;-56
2023/08/19 06:40:22;;;;;;;1.10;1.10;;;;;;;27.98;47.60;95339.28;5112366;28;20545;-56
2023/08/19 06:42:57;;;;;;;8.90;0.70;;;;;;;28.14;47.85;95339.03;5111946;28;20439;-56
2023/08/19 06:45:30;;;;;;;0.40;0.40;;;;;;;28.76;47.57;95343.28;5111724;28;20440;-56
2023/08/19 06:48:00;;;;;;;0.73;0.50;;;;;;;28.88;46.13;95339.41;5112070;28;20516;-56
2023/08/19 06:50:31;;;;;;;0.40;0.40;;;;;;;29.20;46.15;95339.50;5112029;28;20553;-59
2023/08/19 06:53:00;;;;;;;0.80;0.80;;;;;;;29.17;45.33;95343.00;5111931;28;20461;-56
2023/08/19 06:55:29;;;;;;;0.70;0.60;;;;;;;29.41;44.31;95345.78;5112173;28;20979;-56
2023/08/19 06:58:03;;;;;;;0.53;0.53;;;;;;;29.92;43.44;95328.25;5112245;28;20436;-63
2023/08/19 07:00:34;;;;;;;0.80;0.40;;;;;;;30.63;44.01;95342.53;5112052;28;20435;-58
2023/08/19 07:03:05;;;;;;;0.50;0.30;;;;;;;30.73;42.33;95341.72;5111980;28;20452;-57
2023/08/19 07:05:37;;;;;;;4.37;0.83;;;;;;;29.90;41.78;95263.06;5111611;28;20442;-57
2023/08/19 07:08:11;;;;;;;0.60;0.40;;;;;;;30.48;41.40;95349.25;5112077;28;20492;-55
2023/08/19 07:10:40;;;;;;;0.53;0.40;;;;;;;30.60;41.28;95354.28;5111988;28;20445;-55
2023/08/19 07:13:09;;;;;;;0.67;0.53;;;;;;;30.06;41.75;95331.72;5112314;28;20439;-55
2023/08/19 07:19:23;;;;;;;0.73;0.47;;;;;;;31.77;40.64;95338.78;5111342;28;20434;-55
2023/08/19 07:21:55;;;;;;;0.40;0.30;;;;;;;31.63;40.83;95306.00;5111021;28;20451;-55
2023/08/19 07:24:25;;;;;;;0.40;0.30;;;;;;;32.44;40.34;95337.34;5085887;28;20430;-52
2023/08/19 07:26:54;;;;;;;0.53;0.53;;;;;;;32.42;38.68;95340.50;5110569;28;20474;-52
2023/08/19 07:29:22;;;;;;;0.70;0.40;;;;;;;32.24;39.76;95342.66;5111418;28;20475;-52
2023/08/19 07:31:51;;;;;;;0.40;0.40;;;;;;;32.61;39.12;95339.16;5111373;28;20434;-51
2023/08/19 07:34:19;;;;;;;0.50;0.50;;;;;;;32.96;38.41;95333.22;5111081;28;20524;-51
2023/08/19 07:36:50;;;;;;;0.50;0.43;;;;;;;32.93;38.00;95334.03;5111598;28;20443;-51
2023/08/19 07:39:22;;;;;;;0.73;0.73;;;;;;;33.58;36.56;95330.00;5111722;28;20453;-51
2023/08/19 07:41:51;;;;;;;0.80;0.40;;;;;;;33.43;37.07;95328.66;5111836;28;20957;-51
2023/08/19 07:44:19;;;;;;;0.63;0.63;;;;;;;33.55;37.18;95319.84;5111598;28;20438;-51
2023/08/19 07:46:48;;;;;;;1.00;0.40;;;;;;;33.30;37.43;95324.91;5110998;28;20883;-50
2023/08/19 07:49:16;;;;;;;0.43;0.43;;;;;;;33.60;34.78;95313.13;5111349;28;20470;-50
2023/08/19 07:51:45;;;;;;;1.27;0.60;;;;;;;33.69;36.41;95321.59;5111219;28;20435;-50
2023/08/19 07:54:14;;;;;;;0.43;0.40;;;;;;;33.97;36.36;95318.38;5111758;28;20812;-50
2023/08/19 07:56:44;;;;;;;0.40;0.40;;;;;;;33.97;34.29;95321.13;5111372;28;20453;-50
2023/08/19 07:59:11;;;;;;;0.70;0.47;;;;;;;33.34;33.39;95308.38;5111890;28;20434;-50
2023/08/19 08:01:40;;;;;;;0.63;0.57;;;;;;;33.43;35.05;95314.13;5111078;28;20426;-51
2023/08/19 08:04:09;;;;;;;0.60;0.60;;;;;;;33.16;34.33;95295.69;5111421;28;20967;-51
2023/08/19 08:06:37;;;;;;;0.40;0.30;;;;;;;33.98;33.42;95303.41;5085105;28;20525;-50
2023/08/19 08:09:06;;;;;;;0.40;0.30;;;;;;;34.88;33.90;95304.84;5111884;28;20431;-50
2023/08/19 08:11:34;;;;;;;0.40;0.40;;;;;;;35.24;31.57;95302.13;5112057;28;20963;-50
2023/08/19 08:14:04;;;;;;;0.50;0.40;;;;;;;35.59;32.72;95301.31;5111955;28;20466;-50
2023/08/19 08:16:33;;;;;;;0.67;0.40;;;;;;;35.78;33.08;95301.63;5111540;28;20470;-50
2023/08/19 08:19:01;;;;;;;3.17;0.30;;;;;;;36.05;32.19;95297.41;5110480;28;20788;-50
2023/08/19 08:21:30;;;;;;;0.40;0.30;;;;;;;36.00;30.98;95295.16;5111697;28;20193;-50
2023/08/19 08:23:58;;;;;;;0.50;0.40;;;;;;;35.26;29.82;95287.91;5111331;28;20254;-50
2023/08/19 08:26:27;;;;;;;0.70;0.50;;;;;;;34.64;30.34;95280.56;5112835;28;20221;-50
2023/08/19 08:28:55;;;;;;;0.60;0.50;;;;;;;34.67;30.44;95290.72;5114743;28;20231;-51
2023/08/19 08:31:25;;;;;;;0.83;0.70;;;;;;;34.95;30.73;95290.13;5115549;28;20196;-50
2023/08/19 08:33:54;;;;;;;0.43;0.37;;;;;;;35.82;30.45;95292.09;5114647;28;20200;-51
2023/08/19 08:36:22;;;;;;;0.40;0.30;;;;;;;36.42;30.66;95289.72;5115195;28;20692;-50
2023/08/19 08:38:51;;;;;;;0.50;0.50;;;;;;;36.37;28.82;95281.97;5114775;28;20655;-49
2023/08/19 08:41:19;;;;;;;1.50;0.50;;;;;;;36.41;29.19;95277.16;5114960;28;20233;-50
2023/08/19 08:43:49;;;;;;;0.30;0.20;;;;;;;36.90;30.61;95284.78;5114864;28;20200;-47
2023/08/19 08:46:20;;;;;;;0.40;0.40;;;;;;;36.17;29.24;95249.78;5115268;28;20604;-55
2023/08/19 08:48:51;;;;;;;0.65;0.65;;;;;;;35.62;29.55;95277.63;5115036;28;20228;-55
2023/08/19 08:51:22;;;;;;;0.40;0.40;;;;;;;36.57;30.40;95268.81;5115014;28;20201;-56
2023/08/19 08:53:50;;;;;;;0.40;0.30;;;;;;;36.71;28.52;95263.63;5114998;28;20280;-56
2023/08/19 08:56:19;;;;;;;0.40;0.30;;;;;;;37.24;29.87;95266.81;5114678;28;20257;-55
2023/08/19 08:58:48;;;;;;;1.80;0.63;;;;;;;37.59;27.89;95262.16;5114717;28;20724;-55
2023/08/19 09:01:22;;;;;;;0.30;0.30;;;;;;;38.10;26.06;95247.00;5114111;28;20690;-55
2023/08/19 09:03:57;;;;;;;0.30;0.30;;;;;;;38.14;26.97;95250.41;5114535;28;20204;-56
2023/08/19 09:06:26;;;;;;;0.50;0.30;;;;;;;38.79;25.66;95239.34;5114936;28;20257;-56
2023/08/19 09:09:01;;;;;;;0.40;0.30;;;;;;;39.14;24.86;95232.44;5114280;28;20257;-56
2023/08/19 09:11:33;;;;;;;0.40;0.30;;;;;;;38.32;24.52;95244.28;5114335;28;20189;-56
2023/08/19 09:14:10;;;;;;;0.40;0.30;;;;;;;38.51;24.30;95221.78;5114367;28;20283;-56
2023/08/19 09:16:38;;;;;;;0.30;0.20;;;;;;;38.55;26.42;95230.75;5114206;28;20192;-56
2023/08/19 09:19:08;;;;;;;0.70;0.70;;;;;;;38.81;25.81;95219.53;5114485;28;20192;-56
2023/08/19 09:21:37;;;;;;;0.30;0.30;;;;;;;38.82;23.39;95213.53;5114739;28;20189;-56
2023/08/19 09:24:06;;;;;;;0.30;0.30;;;;;;;39.57;23.04;95214.88;5114189;28;20346;-56
2023/08/19 09:26:37;;;;;;;0.30;0.20;;;;;;;40.00;23.40;95211.09;5113906;28;20199;-56
2023/08/19 09:29:06;;;;;;;0.40;0.30;;;;;;;39.37;24.73;95205.44;5114155;28;20638;-57
2023/08/19 09:31:35;;;;;;;0.40;0.30;;;;;;;39.78;24.02;95204.91;5114004;28;20200;-54
2023/08/19 09:34:03;;;;;;;0.30;0.30;;;;;;;39.68;23.99;95206.13;5114123;28;20200;-55
2023/08/19 09:36:33;;;;;;;0.52;0.30;;;;;;;39.96;24.14;95197.38;5111903;28;20273;-55
2023/08/19 09:39:03;;;;;;;0.30;0.20;;;;;;;40.58;22.84;95190.72;5102346;28;20193;-56
2023/08/19 09:41:31;;;;;;;0.30;0.20;;;;;;;40.47;22.16;95194.75;5113775;28;20254;-55
2023/08/19 09:43:59;;;;;;;0.30;0.20;;;;;;;41.08;22.12;95190.72;5114059;28;20574;-56
2023/08/19 09:46:32;;;;;;;0.30;0.30;;;;;;;40.38;21.47;95166.19;5113764;28;20228;-55
2023/08/19 09:49:03;;;;;;;0.35;0.32;;;;;;;40.70;23.02;95186.97;5113589;28;20229;-50
2023/08/19 09:51:33;;;;;;;0.40;0.20;;;;;;;41.44;20.75;95178.66;5113929;28;20284;-50
2023/08/19 09:54:09;;;;;;;0.30;0.20;;;;;;;41.59;19.80;95173.13;5113207;28;20208;-50
2023/08/19 09:56:38;;;;;;;0.30;0.30;;;;;;;40.20;20.42;95171.78;5113001;28;20212;-50
2023/08/19 09:59:07;;;;;;;0.63;0.63;;;;;;;39.72;19.78;95177.00;5113504;28;20249;-50
2023/08/19 10:01:36;;;;;;;0.45;0.45;;;;;;;40.34;20.60;95171.91;5113862;28;20253;-50
2023/08/19 10:04:05;;;;;;;0.30;0.20;;;;;;;40.43;21.12;95174.66;5113479;28;20670;-49
2023/08/19 10:06:36;;;;;;;0.30;0.30;;;;;;;39.96;19.40;95179.94;5113364;28;20189;-50
2023/08/19 10:09:09;;;;;;;0.30;0.30;;;;;;;40.15;20.15;95169.63;5111608;28;20280;-50
2023/08/19 10:11:43;;;;;;;0.20;0.20;;;;;;;40.35;19.86;95159.56;5102396;28;20193;-50
2023/08/19 10:14:13;;;;;;;0.30;0.30;;;;;;;41.18;19.40;95163.63;5112826;28;20618;-49
2023/08/19 10:16:45;;;;;;;0.30;0.20;;;;;;;40.92;18.71;95132.69;5112844;27;20278;-50
2023/08/19 10:19:18;;;;;;;0.40;0.40;;;;;;;41.02;19.46;95152.88;5112971;28;20189;-50
2023/08/19 10:21:50;;;;;;;0.32;0.32;;;;;;;41.29;19.09;95122.19;5112818;28;20260;-50
2023/08/19 10:24:19;;;;;;;0.30;0.30;;;;;;;41.41;18.40;95156.56;5112609;28;20227;-50
2023/08/19 10:26:48;;;;;;;0.50;0.40;;;;;;;41.15;18.73;95148.66;5112610;28;20197;-50
2023/08/19 10:29:17;;;;;;;0.20;0.20;;;;;;;41.52;18.75;95145.69;5112710;28;20193;-59
2023/08/19 10:31:45;;;;;;;0.30;0.30;;;;;;;41.22;19.19;95146.75;5111739;28;20258;-60
2023/08/19 10:34:25;;;;;;;0.30;0.25;;;;;;;39.58;19.84;95138.72;5113268;28;20265;-56
2023/08/19 10:37:08;;;;;;;0.30;0.28;;;;;;;38.52;20.35;95145.78;5112969;28;20208;-59
2023/08/19 10:39:37;;;;;;;0.30;0.20;;;;;;;39.04;19.98;95138.63;5112714;28;20597;-53
2023/08/19 10:42:06;;;;;;;0.30;0.30;;;;;;;39.96;20.33;95136.28;5112159;28;20246;-53
2023/08/19 10:44:34;;;;;;;0.55;0.40;;;;;;;40.68;21.81;95142.97;5112530;28;20200;-53
2023/08/19 10:47:10;;;;;;;0.95;0.45;;;;;;;40.40;20.81;95133.94;5111737;28;20235;-53
2023/08/19 10:49:38;;;;;;;0.77;0.70;;;;;;;40.01;21.46;95129.34;5110753;28;20256;-52
2023/08/19 10:52:08;;;;;;;0.30;0.20;;;;;;;41.05;21.89;95129.69;5112487;28;20196;-53
2023/08/19 10:54:39;;;;;;;0.30;0.30;;;;;;;40.98;22.28;95127.28;5112401;28;20197;-53
2023/08/19 10:57:12;;;;;;;0.30;0.30;;;;;;;41.31;22.24;95124.47;5112229;28;20220;-53
2023/08/19 10:59:42;;;;;;;5.40;0.30;;;;;;;41.72;19.34;95074.22;5112313;28;20200;-53
2023/08/19 11:02:11;;;;;;;0.50;0.50;;;;;;;42.82;18.96;95121.25;5112422;28;20246;-53
2023/08/19 11:04:41;;;;;;;0.30;0.30;;;;;;;42.79;18.12;95122.22;5112023;28;20188;-53
2023/08/19 11:07:12;;;;;;;0.40;0.30;;;;;;;41.95;17.82;95058.69;5112658;28;20197;-52
2023/08/19 11:09:42;;;;;;;0.40;0.40;;;;;;;43.31;18.72;95101.72;5111190;28;20199;-52
2023/08/19 11:12:12;;;;;;;0.30;0.30;;;;;;;42.22;19.75;95103.03;5112146;28;20227;-52
2023/08/19 11:14:40;;;;;;;3.53;1.42;;;;;;;42.48;19.32;95091.28;5085273;28;20242;-53
2023/08/19 11:17:09;;;;;;;0.40;0.40;;;;;;;42.75;19.48;95094.53;5111645;28;20216;-52
2023/08/19 11:19:37;;;;;;;0.30;0.22;;;;;;;42.37;19.74;95080.72;5112213;28;20189;-52
2023/08/19 11:22:05;;;;;;;0.38;0.20;;;;;;;42.18;18.77;95082.16;5112288;28;20197;-52
2023/08/19 11:24:36;;;;;;;0.30;0.30;;;;;;;41.92;19.07;95086.75;5112325;27;20192;-52
2023/08/19 11:27:04;;;;;;;0.30;0.30;;;;;;;42.35;19.99;95075.63;5112178;28;20245;-53
2023/08/19 11:29:33;;;;;;;0.30;0.30;;;;;;;42.03;18.88;95084.94;5111493;28;20560;-52
2023/08/19 11:32:01;;;;;;;0.20;0.20;;;;;;;41.93;19.12;95068.78;5111553;28;20254;-52
2023/08/19 11:34:30;;;;;;;0.30;0.20;;;;;;;42.15;18.95;95072.00;5101599;28;20280;-53
2023/08/19 11:36:58;;;;;;;0.40;0.40;;;;;;;42.07;19.73;95076.41;5107825;28;20213;-52
2023/08/19 11:39:32;;;;;;;0.30;0.30;;;;;;;40.81;20.03;95084.41;5111567;28;20203;-53
2023/08/19 11:42:03;;;;;;;0.40;0.32;;;;;;;42.07;19.12;95068.03;5111201;28;20271;-53
2023/08/19 11:44:33;;;;;;;0.52;0.30;;;;;;;42.11;20.29;95058.25;5112145;28;20679;-53
2023/08/19 11:47:01;;;;;;;0.30;0.30;;;;;;;42.51;20.87;95048.50;5111575;28;20197;-53
2023/08/19 11:49:31;;;;;;;0.30;0.30;;;;;;;42.98;20.35;95056.63;5111503;28;20225;-53